Test XHTML 1.0 Strict Page for WU-History Testing
Station Historical Data
 
Daily Summary for July 22, 2014 Units:  Both    English   Metric
« Previous Day
Next Day »
Daily Weekly Monthly Yearly Custom
  Current: High: Low: Average:
Temperature: 76.1 °F /  24.5 °C 77.2 °F /  25.1 °C 50.0 °F /  10 °C 61.8 °F /  16.6 °C
Dew Point: 59.3 °F /  15.2 °C 62.4 °F /  16.9 °C 49.7 °F /  9.8 °C 56 °F /  13.3 °C
Humidity: 56% 100% 54% 84%
Wind Speed: 2.5mph /  4km/h 6.5mph /  10.5km/h - 0.9mph /  1.4km/h
Wind Gust: 2.5mph /  4km/h 6.5mph /  10.5km/h - -
WindNorth - - SE
Pressure: 30.25 in /  1024.3 hPa 30.27 in /  1024.9 hPa 30.22 in /  1023.2 hPa -
Precipitation: 0.00 in /  0 mm      
Historical Graphs
 
 
Weather-Above Climate History
Untitled
Tabular Data for July 22, 2014
Time Temperature Dew Point Pressure Wind Wind Speed Wind Gust Humidity Rainfall Rate (Hourly)
00:02 55.6 °F /  13.1 °C 54.5 °F /  12.5 °C 30.22in /  1023.2hPa Calm     96% 0.00in /  0cm
00:07 55.6 °F /  13.1 °C 54.5 °F /  12.5 °C 30.22in /  1023.2hPa Calm     96% 0.00in /  0cm
00:12 55.6 °F /  13.1 °C 54.7 °F /  12.6 °C 30.22in /  1023.2hPa Calm     97% 0.00in /  0cm
00:17 54.9 °F /  12.7 °C 53.7 °F /  12.1 °C 30.22in /  1023.2hPa Calm     96% 0.00in /  0cm
00:22 54.7 °F /  12.6 °C 53.6 °F /  12 °C 30.22in /  1023.2hPa Calm     96% 0.00in /  0cm
00:27 54.5 °F /  12.5 °C 53.7 °F /  12.1 °C 30.22in /  1023.2hPa Calm     97% 0.00in /  0cm
00:32 54.7 °F /  12.6 °C 53.8 °F /  12.1 °C 30.22in /  1023.2hPa Calm     97% 0.00in /  0cm
00:37 55.0 °F /  12.8 °C 54.2 °F /  12.3 °C 30.23in /  1023.6hPa Calm     97% 0.00in /  0cm
00:42 54.7 °F /  12.6 °C 53.8 °F /  12.1 °C 30.23in /  1023.6hPa Calm     97% 0.00in /  0cm
00:47 54.0 °F /  12.2 °C 53.1 °F /  11.7 °C 30.22in /  1023.2hPa Calm     97% 0.00in /  0cm
00:52 54.0 °F /  12.2 °C 53.1 °F /  11.7 °C 30.23in /  1023.6hPa Calm     97% 0.00in /  0cm
00:57 54.3 °F /  12.4 °C 53.2 °F /  11.8 °C 30.23in /  1023.6hPa Calm     96% 0.00in /  0cm
01:02 54.3 °F /  12.4 °C 53.8 °F /  12.1 °C 30.23in /  1023.6hPa Calm     98% 0.00in /  0cm
01:07 54.1 °F /  12.3 °C 53.6 °F /  12 °C 30.22in /  1023.2hPa Calm     98% 0.00in /  0cm
01:12 54.0 °F /  12.2 °C 53.4 °F /  11.9 °C 30.23in /  1023.6hPa Calm     98% 0.00in /  0cm
01:17 54.1 °F /  12.3 °C 53.6 °F /  12 °C 30.23in /  1023.6hPa Calm     98% 0.00in /  0cm
01:22 54.0 °F /  12.2 °C 53.4 °F /  11.9 °C 30.22in /  1023.2hPa Calm     98% 0.00in /  0cm
01:27 54.0 °F /  12.2 °C 53.4 °F /  11.9 °C 30.23in /  1023.6hPa Calm     98% 0.00in /  0cm
01:32 53.8 °F /  12.1 °C 53.2 °F /  11.8 °C 30.23in /  1023.6hPa Calm     98% 0.00in /  0cm
01:37 53.4 °F /  11.9 °C 52.9 °F /  11.6 °C 30.23in /  1023.6hPa Calm     98% 0.00in /  0cm
01:42 53.4 °F /  11.9 °C 52.9 °F /  11.6 °C 30.23in /  1023.6hPa Calm     98% 0.00in /  0cm
01:47 53.1 °F /  11.7 °C 52.5 °F /  11.4 °C 30.23in /  1023.6hPa Calm     98% 0.00in /  0cm
01:52 53.1 °F /  11.7 °C 52.5 °F /  11.4 °C 30.23in /  1023.6hPa Calm     98% 0.00in /  0cm
01:57 53.1 °F /  11.7 °C 52.5 °F /  11.4 °C 30.23in /  1023.6hPa Calm     98% 0.00in /  0cm
02:02 53.4 °F /  11.9 °C 52.9 °F /  11.6 °C 30.23in /  1023.6hPa Calm     98% 0.00in /  0cm
02:07 53.4 °F /  11.9 °C 53.1 °F /  11.7 °C 30.23in /  1023.6hPa Calm     99% 0.00in /  0cm
02:12 53.1 °F /  11.7 °C 52.8 °F /  11.6 °C 30.23in /  1023.6hPa Calm     99% 0.00in /  0cm
02:17 52.9 °F /  11.6 °C 52.3 °F /  11.3 °C 30.23in /  1023.6hPa Calm     98% 0.00in /  0cm
02:22 53.1 °F /  11.7 °C 52.8 °F /  11.6 °C 30.23in /  1023.6hPa Calm     99% 0.00in /  0cm
02:27 52.5 °F /  11.4 °C 52.0 °F /  11.1 °C 30.23in /  1023.6hPa Calm     98% 0.00in /  0cm
02:32 52.2 °F /  11.2 °C 51.6 °F /  10.9 °C 30.23in /  1023.6hPa Calm     98% 0.00in /  0cm
02:37 52.3 °F /  11.3 °C 51.8 °F /  11 °C 30.23in /  1023.6hPa Calm     98% 0.00in /  0cm
02:42 52.2 °F /  11.2 °C 51.6 °F /  10.9 °C 30.23in /  1023.6hPa Calm     98% 0.00in /  0cm
02:47 52.3 °F /  11.3 °C 51.8 °F /  11 °C 30.23in /  1023.6hPa Calm     98% 0.00in /  0cm
02:52 52.5 °F /  11.4 °C 52.2 °F /  11.2 °C 30.23in /  1023.6hPa Calm     99% 0.00in /  0cm
02:57 52.0 °F /  11.1 °C 51.4 °F /  10.8 °C 30.23in /  1023.6hPa Calm     98% 0.00in /  0cm
03:02 51.8 °F /  11 °C 51.3 °F /  10.7 °C 30.24in /  1023.9hPa Calm     98% 0.00in /  0cm
03:07 52.2 °F /  11.2 °C 51.6 °F /  10.9 °C 30.23in /  1023.6hPa Calm     98% 0.00in /  0cm
03:12 52.2 °F /  11.2 °C 51.9 °F /  11.1 °C 30.24in /  1023.9hPa Calm     99% 0.00in /  0cm
03:17 52.0 °F /  11.1 °C 51.4 °F /  10.8 °C 30.24in /  1023.9hPa Calm     98% 0.00in /  0cm
03:22 51.8 °F /  11 °C 51.3 °F /  10.7 °C 30.24in /  1023.9hPa Calm     98% 0.00in /  0cm
03:27 51.6 °F /  10.9 °C 51.1 °F /  10.6 °C 30.24in /  1023.9hPa Calm     98% 0.00in /  0cm
03:32 51.6 °F /  10.9 °C 51.3 °F /  10.7 °C 30.24in /  1023.9hPa Calm     99% 0.00in /  0cm
03:37 51.3 °F /  10.7 °C 50.7 °F /  10.4 °C 30.24in /  1023.9hPa Calm     98% 0.00in /  0cm
03:42 51.4 °F /  10.8 °C 51.4 °F /  10.8 °C 30.24in /  1023.9hPa Calm     100% 0.00in /  0cm
03:47 51.4 °F /  10.8 °C 51.2 °F /  10.7 °C 30.24in /  1023.9hPa Calm     99% 0.00in /  0cm
03:52 51.6 °F /  10.9 °C 51.1 °F /  10.6 °C 30.24in /  1023.9hPa Calm     98% 0.00in /  0cm
03:57 51.1 °F /  10.6 °C 50.5 °F /  10.3 °C 30.24in /  1023.9hPa Calm     98% 0.00in /  0cm
04:02 51.3 °F /  10.7 °C 51.0 °F /  10.6 °C 30.25in /  1024.3hPa Calm     99% 0.00in /  0cm
04:07 51.1 °F /  10.6 °C 50.8 °F /  10.4 °C 30.24in /  1023.9hPa Calm     99% 0.00in /  0cm
04:12 50.9 °F /  10.5 °C 50.6 °F /  10.3 °C 30.24in /  1023.9hPa Calm     99% 0.00in /  0cm
04:17 50.9 °F /  10.5 °C 50.6 °F /  10.3 °C 30.24in /  1023.9hPa Calm     99% 0.00in /  0cm
04:22 50.9 °F /  10.5 °C 50.6 °F /  10.3 °C 30.24in /  1023.9hPa Calm     99% 0.00in /  0cm
04:27 51.1 °F /  10.6 °C 50.8 °F /  10.4 °C 30.24in /  1023.9hPa Calm     99% 0.00in /  0cm
04:32 50.4 °F /  10.2 °C 50.1 °F /  10.1 °C 30.24in /  1023.9hPa Calm     99% 0.00in /  0cm
04:37 50.0 °F /  10 °C 49.7 °F /  9.8 °C 30.24in /  1023.9hPa Calm     99% 0.00in /  0cm
04:42 50.4 °F /  10.2 °C 49.8 °F /  9.9 °C 30.25in /  1024.3hPa Calm     98% 0.00in /  0cm
04:47 50.7 °F /  10.4 °C 50.4 °F /  10.2 °C 30.24in /  1023.9hPa Calm     99% 0.00in /  0cm
04:52 50.4 °F /  10.2 °C 50.1 °F /  10.1 °C 30.24in /  1023.9hPa Calm     99% 0.00in /  0cm
04:57 50.2 °F /  10.1 °C 49.9 °F /  9.9 °C 30.25in /  1024.3hPa Calm     99% 0.00in /  0cm
05:01 50.7 °F /  10.4 °C 50.7 °F /  10.4 °C 30.24in /  1023.9hPa Calm     100% 0.00in /  0cm
05:02 50.7 °F /  10.4 °C 50.4 °F /  10.2 °C 30.25in /  1024.3hPa Calm     99% 0.00in /  0cm
05:04 50.7 °F /  10.4 °C 50.7 °F /  10.4 °C 30.25in /  1024.3hPa Calm     100% 0.00in /  0cm
05:07 50.4 °F /  10.2 °C 49.8 °F /  9.9 °C 30.25in /  1024.3hPa Calm     98% 0.00in /  0cm
05:08 50.5 °F /  10.3 °C 50.3 °F /  10.2 °C 30.25in /  1024.3hPa Calm     99% 0.00in /  0cm
05:13 50.0 °F /  10 °C 49.7 °F /  9.8 °C 30.25in /  1024.3hPa Calm     99% 0.00in /  0cm
05:15 50.0 °F /  10 °C 49.7 °F /  9.8 °C 30.25in /  1024.3hPa Calm     99% 0.00in /  0cm
05:20 50.0 °F /  10 °C 49.7 °F /  9.8 °C 30.25in /  1024.3hPa Calm     99% 0.00in /  0cm
05:25 50.0 °F /  10 °C 49.7 °F /  9.8 °C 30.25in /  1024.3hPa Calm     99% 0.00in /  0cm
05:30 50.2 °F /  10.1 °C 49.9 °F /  9.9 °C 30.25in /  1024.3hPa Calm     99% 0.00in /  0cm
05:35 50.4 °F /  10.2 °C 50.1 °F /  10.1 °C 30.25in /  1024.3hPa Calm     99% 0.00in /  0cm
05:40 50.0 °F /  10 °C 49.7 °F /  9.8 °C 30.25in /  1024.3hPa Calm     99% 0.00in /  0cm
05:45 50.0 °F /  10 °C 49.7 °F /  9.8 °C 30.25in /  1024.3hPa Calm     99% 0.00in /  0cm
05:50 50.4 °F /  10.2 °C 50.1 °F /  10.1 °C 30.25in /  1024.3hPa Calm     99% 0.00in /  0cm
05:55 50.4 °F /  10.2 °C 50.1 °F /  10.1 °C 30.25in /  1024.3hPa Calm     99% 0.00in /  0cm
06:00 50.4 °F /  10.2 °C 50.1 °F /  10.1 °C 30.25in /  1024.3hPa Calm     99% 0.00in /  0cm
06:06 50.4 °F /  10.2 °C 50.4 °F /  10.2 °C 30.25in /  1024.3hPa Calm     100% 0.00in /  0cm
06:11 50.5 °F /  10.3 °C 50.3 °F /  10.2 °C 30.25in /  1024.3hPa Calm     99% 0.00in /  0cm
06:16 51.1 °F /  10.6 °C 50.8 °F /  10.4 °C 30.25in /  1024.3hPa Calm     99% 0.00in /  0cm
06:21 51.4 °F /  10.8 °C 51.4 °F /  10.8 °C 30.25in /  1024.3hPa Calm     100% 0.00in /  0cm
06:26 51.8 °F /  11 °C 51.5 °F /  10.8 °C 30.25in /  1024.3hPa Calm     99% 0.00in /  0cm
06:31 51.8 °F /  11 °C 51.5 °F /  10.8 °C 30.25in /  1024.3hPa Calm     99% 0.00in /  0cm
06:36 52.0 °F /  11.1 °C 51.7 °F /  10.9 °C 30.25in /  1024.3hPa Calm     99% 0.00in /  0cm
06:41 52.2 °F /  11.2 °C 52.2 °F /  11.2 °C 30.25in /  1024.3hPa Calm     100% 0.00in /  0cm
06:46 52.2 °F /  11.2 °C 52.2 °F /  11.2 °C 30.25in /  1024.3hPa Calm     100% 0.00in /  0cm
06:51 52.7 °F /  11.5 °C 52.7 °F /  11.5 °C 30.26in /  1024.6hPa Calm     100% 0.00in /  0cm
06:56 53.1 °F /  11.7 °C 53.1 °F /  11.7 °C 30.26in /  1024.6hPa Calm     100% 0.00in /  0cm
07:01 53.1 °F /  11.7 °C 52.8 °F /  11.6 °C 30.26in /  1024.6hPa Calm     99% 0.00in /  0cm
07:07 53.6 °F /  12 °C 53.6 °F /  12 °C 30.26in /  1024.6hPa Calm     100% 0.00in /  0cm
07:12 54.1 °F /  12.3 °C 53.9 °F /  12.2 °C 30.26in /  1024.6hPa Calm     99% 0.00in /  0cm
07:17 54.5 °F /  12.5 °C 54.2 °F /  12.3 °C 30.25in /  1024.3hPa Calm     99% 0.00in /  0cm
07:22 54.9 °F /  12.7 °C 54.9 °F /  12.7 °C 30.26in /  1024.6hPa Calm     100% 0.00in /  0cm
07:27 55.0 °F /  12.8 °C 54.8 °F /  12.7 °C 30.26in /  1024.6hPa Calm     99% 0.00in /  0cm
07:32 55.2 °F /  12.9 °C 55.2 °F /  12.9 °C 30.26in /  1024.6hPa Calm     100% 0.00in /  0cm
07:37 55.8 °F /  13.2 °C 55.5 °F /  13.1 °C 30.26in /  1024.6hPa Calm     99% 0.00in /  0cm
07:42 55.9 °F /  13.3 °C 55.9 °F /  13.3 °C 30.26in /  1024.6hPa Calm     100% 0.00in /  0cm
07:47 56.3 °F /  13.5 °C 56.0 °F /  13.3 °C 30.26in /  1024.6hPa Calm     99% 0.00in /  0cm
07:52 56.7 °F /  13.7 °C 56.4 °F /  13.6 °C 30.26in /  1024.6hPa Calm     99% 0.00in /  0cm
07:57 56.8 °F /  13.8 °C 56.6 °F /  13.7 °C 30.26in /  1024.6hPa Calm     99% 0.00in /  0cm
08:02 57.2 °F /  14 °C 56.9 °F /  13.8 °C 30.26in /  1024.6hPa Calm     99% 0.00in /  0cm
08:07 57.7 °F /  14.3 °C 57.2 °F /  14 °C 30.26in /  1024.6hPa Calm     98% 0.00in /  0cm
08:12 58.3 °F /  14.6 °C 57.7 °F /  14.3 °C 30.26in /  1024.6hPa Calm     98% 0.00in /  0cm
08:17 59.0 °F /  15 °C 58.2 °F /  14.6 °C 30.26in /  1024.6hPa Calm     97% 0.00in /  0cm
08:22 59.5 °F /  15.3 °C 58.4 °F /  14.7 °C 30.27in /  1024.9hPa Calm     96% 0.00in /  0cm
08:27 59.7 °F /  15.4 °C 58.6 °F /  14.8 °C 30.26in /  1024.6hPa Calm     96% 0.00in /  0cm
08:32 60.1 °F /  15.6 °C 58.6 °F /  14.8 °C 30.26in /  1024.6hPa Calm     95% 0.00in /  0cm
08:37 60.6 °F /  15.9 °C 58.6 °F /  14.8 °C 30.26in /  1024.6hPa Calm     93% 0.00in /  0cm
08:42 61.2 °F /  16.2 °C 58.8 °F /  14.9 °C 30.26in /  1024.6hPa Calm     92% 0.00in /  0cm
08:47 61.0 °F /  16.1 °C 58.3 °F /  14.6 °C 30.26in /  1024.6hPa Calm     91% 0.00in /  0cm
08:52 61.5 °F /  16.4 °C 58.2 °F /  14.6 °C 30.26in /  1024.6hPa Calm     89% 0.00in /  0cm
08:57 62.1 °F /  16.7 °C 58.1 °F /  14.5 °C 30.27in /  1024.9hPa Calm     87% 0.00in /  0cm
09:02 62.6 °F /  17 °C 58.4 °F /  14.7 °C 30.27in /  1024.9hPa Calm     86% 0.00in /  0cm
09:07 63.1 °F /  17.3 °C 58.9 °F /  14.9 °C 30.27in /  1024.9hPa Calm     86% 0.00in /  0cm
09:12 63.7 °F /  17.6 °C 59.1 °F /  15.1 °C 30.27in /  1024.9hPa Calm     85% 0.00in /  0cm
09:17 64.8 °F /  18.2 °C 59.5 °F /  15.3 °C 30.27in /  1024.9hPa Calm     83% 0.00in /  0cm
09:22 65.5 °F /  18.6 °C 59.8 °F /  15.4 °C 30.26in /  1024.6hPa Calm     82% 0.00in /  0cm
09:27 66.0 °F /  18.9 °C 60.4 °F /  15.8 °C 30.26in /  1024.6hPa Calm     82% 0.00in /  0cm
09:32 66.9 °F /  19.4 °C 60.2 °F /  15.7 °C 30.26in /  1024.6hPa Calm     79% 0.00in /  0cm
09:37 67.1 °F /  19.5 °C 60.0 °F /  15.6 °C 30.26in /  1024.6hPa SSE 2.0mph /  3.2km/h 2.0mph /  3.2km/h 78% 0.00in /  0cm
09:42 68.0 °F /  20 °C 60.5 °F /  15.8 °C 30.26in /  1024.6hPa SSW 1.2mph /  1.9km/h   77% 0.00in /  0cm
09:47 68.2 °F /  20.1 °C 61.1 °F /  16.2 °C 30.26in /  1024.6hPa SSW 3.5mph /  5.6km/h 3.5mph /  5.6km/h 78% 0.00in /  0cm
09:52 68.5 °F /  20.3 °C 62.1 °F /  16.7 °C 30.26in /  1024.6hPa Calm     80% 0.00in /  0cm
09:57 68.7 °F /  20.4 °C 61.9 °F /  16.6 °C 30.26in /  1024.6hPa NNW 3.0mph /  4.8km/h 3.0mph /  4.8km/h 79% 0.00in /  0cm
10:02 68.4 °F /  20.2 °C 61.2 °F /  16.2 °C 30.26in /  1024.6hPa Calm     78% 0.00in /  0cm
10:07 68.7 °F /  20.4 °C 60.8 °F /  16 °C 30.26in /  1024.6hPa Calm     76% 0.00in /  0cm
10:12 69.3 °F /  20.7 °C 61.4 °F /  16.3 °C 30.26in /  1024.6hPa SSE 3.7mph /  6km/h 3.7mph /  6km/h 76% 0.00in /  0cm
10:17 68.9 °F /  20.5 °C 61.8 °F /  16.6 °C 30.26in /  1024.6hPa NE 2.3mph /  3.7km/h 2.3mph /  3.7km/h 78% 0.00in /  0cm
10:22 68.7 °F /  20.4 °C 61.6 °F /  16.4 °C 30.26in /  1024.6hPa NE 0.5mph /  0.8km/h   78% 0.00in /  0cm
10:27 68.5 °F /  20.3 °C 60.3 °F /  15.7 °C 30.26in /  1024.6hPa Calm   0.1mph /  0.2km/h 75% 0.00in /  0cm
10:32 69.4 °F /  20.8 °C 60.4 °F /  15.8 °C 30.27in /  1024.9hPa NNE 1.2mph /  1.9km/h   73% 0.00in /  0cm
10:37 69.6 °F /  20.9 °C 61.0 °F /  16.1 °C 30.26in /  1024.6hPa Calm     74% 0.00in /  0cm
10:42 70.2 °F /  21.2 °C 60.7 °F /  15.9 °C 30.26in /  1024.6hPa SSE 4.6mph /  7.4km/h 4.6mph /  7.4km/h 72% 0.00in /  0cm
10:47 70.5 °F /  21.4 °C 60.7 °F /  15.9 °C 30.26in /  1024.6hPa South 1.3mph /  2.1km/h 1.3mph /  2.1km/h 71% 0.00in /  0cm
10:52 70.9 °F /  21.6 °C 61.8 °F /  16.6 °C 30.26in /  1024.6hPa Calm   0.1mph /  0.2km/h 73% 0.00in /  0cm
10:57 71.6 °F /  22 °C 61.3 °F /  16.3 °C 30.26in /  1024.6hPa ENE 2.3mph /  3.7km/h 2.3mph /  3.7km/h 70% 0.00in /  0cm
11:02 72.3 °F /  22.4 °C 61.6 °F /  16.4 °C 30.26in /  1024.6hPa SSE 3.5mph /  5.6km/h 3.5mph /  5.6km/h 69% 0.00in /  0cm
11:07 72.7 °F /  22.6 °C 60.2 °F /  15.7 °C 30.26in /  1024.6hPa West 2.3mph /  3.7km/h   65% 0.00in /  0cm
11:12 71.6 °F /  22 °C 60.5 °F /  15.8 °C 30.26in /  1024.6hPa Calm     68% 0.00in /  0cm
11:17 71.6 °F /  22 °C 60.9 °F /  16.1 °C 30.26in /  1024.6hPa Calm     69% 0.00in /  0cm
11:22 72.1 °F /  22.3 °C 59.7 °F /  15.4 °C 30.27in /  1024.9hPa WNW 1.2mph /  1.9km/h   65% 0.00in /  0cm
11:27 71.1 °F /  21.7 °C 62.4 °F /  16.9 °C 30.26in /  1024.6hPa Calm   0.1mph /  0.2km/h 74% 0.00in /  0cm
11:32 70.5 °F /  21.4 °C 61.4 °F /  16.3 °C 30.26in /  1024.6hPa SE 0.4mph /  0.6km/h 0.4mph /  0.6km/h 73% 0.00in /  0cm
11:37 71.4 °F /  21.9 °C 61.9 °F /  16.6 °C 30.27in /  1024.9hPa Calm     72% 0.00in /  0cm
11:42 72.3 °F /  22.4 °C 60.7 °F /  15.9 °C 30.27in /  1024.9hPa NNE 2.3mph /  3.7km/h 2.3mph /  3.7km/h 67% 0.00in /  0cm
11:47 72.9 °F /  22.7 °C 60.0 °F /  15.6 °C 30.26in /  1024.6hPa ESE 2.3mph /  3.7km/h 2.3mph /  3.7km/h 64% 0.00in /  0cm
11:52 72.0 °F /  22.2 °C 60.4 °F /  15.8 °C 30.27in /  1024.9hPa Calm     67% 0.00in /  0cm
11:57 71.4 °F /  21.9 °C 60.3 °F /  15.7 °C 30.27in /  1024.9hPa Calm     68% 0.00in /  0cm
12:02 71.2 °F /  21.8 °C 60.5 °F /  15.8 °C 30.27in /  1024.9hPa NW 0.9mph /  1.4km/h 0.9mph /  1.4km/h 69% 0.00in /  0cm
12:07 70.9 °F /  21.6 °C 61.8 °F /  16.6 °C 30.27in /  1024.9hPa Calm     73% 0.00in /  0cm
12:12 70.5 °F /  21.4 °C 61.4 °F /  16.3 °C 30.27in /  1024.9hPa Calm     73% 0.00in /  0cm
12:17 70.3 °F /  21.3 °C 61.7 °F /  16.5 °C 30.27in /  1024.9hPa Calm     74% 0.00in /  0cm
12:22 70.7 °F /  21.5 °C 60.4 °F /  15.8 °C 30.27in /  1024.9hPa Calm     70% 0.00in /  0cm
12:27 72.3 °F /  22.4 °C 60.3 °F /  15.7 °C 30.27in /  1024.9hPa NW 2.4mph /  3.9km/h 2.4mph /  3.9km/h 66% 0.00in /  0cm
12:32 73.8 °F /  23.2 °C 59.9 °F /  15.5 °C 30.27in /  1024.9hPa WNW 1.2mph /  1.9km/h 1.2mph /  1.9km/h 62% 0.00in /  0cm
12:37 74.7 °F /  23.7 °C 60.3 °F /  15.7 °C 30.27in /  1024.9hPa Calm   0.2mph /  0.3km/h 61% 0.00in /  0cm
12:42 75.2 °F /  24 °C 59.9 °F /  15.5 °C 30.26in /  1024.6hPa NE 4.6mph /  7.4km/h 4.6mph /  7.4km/h 59% 0.00in /  0cm
12:47 75.4 °F /  24.1 °C 59.6 °F /  15.3 °C 30.27in /  1024.9hPa SW 3.5mph /  5.6km/h 3.5mph /  5.6km/h 58% 0.00in /  0cm
12:52 75.0 °F /  23.9 °C 58.8 °F /  14.9 °C 30.26in /  1024.6hPa SE 2.3mph /  3.7km/h 2.3mph /  3.7km/h 57% 0.00in /  0cm
12:57 73.4 °F /  23 °C 59.6 °F /  15.3 °C 30.27in /  1024.9hPa WNW 2.0mph /  3.2km/h 2.0mph /  3.2km/h 62% 0.00in /  0cm
13:02 72.0 °F /  22.2 °C 59.1 °F /  15.1 °C 30.26in /  1024.6hPa NE 2.3mph /  3.7km/h 2.3mph /  3.7km/h 64% 0.00in /  0cm
13:07 72.9 °F /  22.7 °C 60.0 °F /  15.6 °C 30.26in /  1024.6hPa SSE 3.5mph /  5.6km/h 3.5mph /  5.6km/h 64% 0.00in /  0cm
13:12 73.2 °F /  22.9 °C 59.4 °F /  15.2 °C 30.26in /  1024.6hPa Calm   1.4mph /  2.3km/h 62% 0.00in /  0cm
13:17 73.8 °F /  23.2 °C 59.0 °F /  15 °C 30.27in /  1024.9hPa NNW 4.2mph /  6.8km/h 4.2mph /  6.8km/h 60% 0.00in /  0cm
13:22 74.3 °F /  23.5 °C 58.6 °F /  14.8 °C 30.26in /  1024.6hPa SSE 2.3mph /  3.7km/h 2.3mph /  3.7km/h 58% 0.00in /  0cm
13:27 74.7 °F /  23.7 °C 58.4 °F /  14.7 °C 30.26in /  1024.6hPa NE 2.7mph /  4.3km/h 2.7mph /  4.3km/h 57% 0.00in /  0cm
13:32 75.0 °F /  23.9 °C 58.3 °F /  14.6 °C 30.26in /  1024.6hPa South 1.2mph /  1.9km/h 1.2mph /  1.9km/h 56% 0.00in /  0cm
13:37 75.9 °F /  24.4 °C 59.6 °F /  15.3 °C 30.26in /  1024.6hPa SSW 3.5mph /  5.6km/h 3.5mph /  5.6km/h 57% 0.00in /  0cm
13:42 76.3 °F /  24.6 °C 58.9 °F /  14.9 °C 30.26in /  1024.6hPa NE 2.3mph /  3.7km/h 2.3mph /  3.7km/h 55% 0.00in /  0cm
13:47 76.1 °F /  24.5 °C 59.8 °F /  15.4 °C 30.26in /  1024.6hPa NE 3.8mph /  6.1km/h 3.8mph /  6.1km/h 57% 0.00in /  0cm
13:52 76.1 °F /  24.5 °C 60.2 °F /  15.7 °C 30.26in /  1024.6hPa SSE 3.5mph /  5.6km/h 3.5mph /  5.6km/h 58% 0.00in /  0cm
13:57 75.9 °F /  24.4 °C 59.6 °F /  15.3 °C 30.26in /  1024.6hPa ENE 3.5mph /  5.6km/h 3.5mph /  5.6km/h 57% 0.00in /  0cm
14:02 76.1 °F /  24.5 °C 59.8 °F /  15.4 °C 30.26in /  1024.6hPa ESE 4.6mph /  7.4km/h 4.6mph /  7.4km/h 57% 0.00in /  0cm
14:07 75.9 °F /  24.4 °C 59.1 °F /  15.1 °C 30.26in /  1024.6hPa West 1.2mph /  1.9km/h 1.2mph /  1.9km/h 56% 0.00in /  0cm
14:12 76.1 °F /  24.5 °C 59.8 °F /  15.4 °C 30.26in /  1024.6hPa Calm     57% 0.00in /  0cm
14:17 75.6 °F /  24.2 °C 58.8 °F /  14.9 °C 30.26in /  1024.6hPa NNE 3.5mph /  5.6km/h 3.5mph /  5.6km/h 56% 0.00in /  0cm
14:22 75.4 °F /  24.1 °C 60.1 °F /  15.6 °C 30.26in /  1024.6hPa WSW 2.3mph /  3.7km/h 2.3mph /  3.7km/h 59% 0.00in /  0cm
14:27 75.9 °F /  24.4 °C 60.1 °F /  15.6 °C 30.26in /  1024.6hPa SW 5.8mph /  9.3km/h 5.8mph /  9.3km/h 58% 0.00in /  0cm
14:32 76.3 °F /  24.6 °C 58.9 °F /  14.9 °C 30.26in /  1024.6hPa North 6.5mph /  10.5km/h 6.5mph /  10.5km/h 55% 0.00in /  0cm
14:37 76.5 °F /  24.7 °C 59.6 °F /  15.3 °C 30.25in /  1024.3hPa South 3.5mph /  5.6km/h 3.5mph /  5.6km/h 56% 0.00in /  0cm
14:42 76.8 °F /  24.9 °C 59.9 °F /  15.5 °C 30.26in /  1024.6hPa NNE 3.5mph /  5.6km/h 3.5mph /  5.6km/h 56% 0.00in /  0cm
14:47 77.0 °F /  25 °C 60.1 °F /  15.6 °C 30.26in /  1024.6hPa NE 4.6mph /  7.4km/h 4.6mph /  7.4km/h 56% 0.00in /  0cm
14:52 77.2 °F /  25.1 °C 59.2 °F /  15.1 °C 30.26in /  1024.6hPa Calm   0.1mph /  0.2km/h 54% 0.00in /  0cm
14:57 76.8 °F /  24.9 °C 58.9 °F /  14.9 °C 30.25in /  1024.3hPa NNE 4.6mph /  7.4km/h 4.6mph /  7.4km/h 54% 0.00in /  0cm
15:02 76.8 °F /  24.9 °C 60.9 °F /  16.1 °C 30.25in /  1024.3hPa NW 2.3mph /  3.7km/h 2.3mph /  3.7km/h 58% 0.00in /  0cm
15:07 76.8 °F /  24.9 °C 59.4 °F /  15.2 °C 30.26in /  1024.6hPa East 2.3mph /  3.7km/h 2.3mph /  3.7km/h 55% 0.00in /  0cm
15:12 76.5 °F /  24.7 °C 60.1 °F /  15.6 °C 30.26in /  1024.6hPa WSW 3.5mph /  5.6km/h 3.5mph /  5.6km/h 57% 0.00in /  0cm
15:17 76.1 °F /  24.5 °C 59.8 °F /  15.4 °C 30.25in /  1024.3hPa South 4.6mph /  7.4km/h 4.6mph /  7.4km/h 57% 0.00in /  0cm
15:22 76.8 °F /  24.9 °C 59.9 °F /  15.5 °C 30.25in /  1024.3hPa NNE 2.3mph /  3.7km/h 2.3mph /  3.7km/h 56% 0.00in /  0cm
15:27 76.6 °F /  24.8 °C 59.8 °F /  15.4 °C 30.25in /  1024.3hPa ENE 4.8mph /  7.7km/h 4.8mph /  7.7km/h 56% 0.00in /  0cm
15:32 76.3 °F /  24.6 °C 58.4 °F /  14.7 °C 30.26in /  1024.6hPa SSE 0.9mph /  1.4km/h 0.9mph /  1.4km/h 54% 0.00in /  0cm
15:37 76.6 °F /  24.8 °C 59.3 °F /  15.2 °C 30.25in /  1024.3hPa NNE 3.5mph /  5.6km/h 3.5mph /  5.6km/h 55% 0.00in /  0cm
15:42 76.8 °F /  24.9 °C 60.9 °F /  16.1 °C 30.25in /  1024.3hPa East 3.5mph /  5.6km/h 3.5mph /  5.6km/h 58% 0.00in /  0cm
15:47 76.6 °F /  24.8 °C 59.8 °F /  15.4 °C 30.25in /  1024.3hPa NE 3.5mph /  5.6km/h 3.5mph /  5.6km/h 56% 0.00in /  0cm
15:52 76.5 °F /  24.7 °C 59.1 °F /  15.1 °C 30.25in /  1024.3hPa SSE 3.5mph /  5.6km/h   55% 0.00in /  0cm
15:57 76.5 °F /  24.7 °C 60.6 °F /  15.9 °C 30.25in /  1024.3hPa NE 2.3mph /  3.7km/h 2.3mph /  3.7km/h 58% 0.00in /  0cm
16:02 76.3 °F /  24.6 °C 59.9 °F /  15.5 °C 30.25in /  1024.3hPa North 2.7mph /  4.3km/h 2.7mph /  4.3km/h 57% 0.00in /  0cm
16:07 75.9 °F /  24.4 °C 59.1 °F /  15.1 °C 30.25in /  1024.3hPa Calm     56% 0.00in /  0cm
16:12 76.1 °F /  24.5 °C 59.3 °F /  15.2 °C 30.25in /  1024.3hPa North 2.5mph /  4km/h 2.5mph /  4km/h 56% 0.00in /  0cm
Wether-Above
Compliments of Weather Underground
Welcome to Weather-Above
Cheddleton weather station supplies various organisations with data from our weather station one of them is the weather Underground this information displayed here is coming from the weather Underground server 

If any information is used please acknowledge the source to www weather-above.com or weather Underground